Hauptseite
METAR-TAF:

METAR-TAF

Flughäfen :

Flughafen Quimper-Bretagne

Quimper, Frankreich

Breite: 47-58N, Länge: 004-10W, Höhe: 92 m

Beobachtung

Neuester Wetterbericht von vor 25 Minuten, um 02:00 UTC
Wind 12 kt aus Ost/Nordost
Temperatur 3°C
Luftfeuchtigkeit 87%
Luftdruck 1017 hPa
Sichtweite: 7000 m

METAR: LFRQ 180200Z AUTO 07012KT 7000 NSC 03/01 Q1017

Zeit: 03:25 (02:25 UTC)

Prognose

Neuester Wetterbericht von vor 6 Stunden und 15 Minuten, um 20:10 UTC
Gültige Prognose vom 17 um 20 UTC bis 18 um 18 UTC
Wind 7 kt aus Ost
Sichtweite 10 km oder mehr
Leicht bewölkt in der Höhe von 900 ft
Aufgelockert bewölkt in der Höhe von 14000 ft

TAF: LFRQ 172010Z 1720/1818 08007KT 9999 FEW009 SCT140

Wetterbeobachtungen und Prognosen von mehr als 4000 Flughäfen (METAR und TAF Bericht).

Die verfügbaren Stationen werden durch gelbe und rote Markierungen auf der Karte dargestellt.

Führen Sie die Maus auf sie, um den Namen der Station zu sehen.

Darauf klicken, um die Beobachtung von Wetterbeobachtungen und Prognosen zu sehen.

Um die Karte zu ändern : klicken Sie auf den grünen Tasten mit einem schwarzen Kreuz Zum Vergrößern, auf den grünen Button mit einem Gedankenstrich zu verkleinern, oder auf die grünen Pfeile für benachbarte Karten.


METAR-TAF: